createdAt,value
2022-12-08T00:00:46.712Z,99913.16
2022-12-08T00:03:19.207Z,99900.97
2022-12-08T00:06:01.859Z,99900.13
2022-12-08T00:08:43.879Z,99900.97
2022-12-08T00:11:15.009Z,99892.31
2022-12-08T00:13:44.759Z,99889.72
2022-12-08T00:16:14.819Z,99890.63
2022-12-08T00:18:47.042Z,99895.00
2022-12-08T00:21:16.634Z,99887.09
2022-12-08T00:23:46.229Z,99886.22
2022-12-08T00:26:15.806Z,99874.88
2022-12-08T00:28:45.360Z,99877.47
2022-12-08T00:31:15.261Z,99879.22
2022-12-08T00:33:47.513Z,99878.31
2022-12-08T00:36:17.738Z,99874.84
2022-12-08T00:38:48.419Z,99874.84
2022-12-08T00:41:19.006Z,99871.31
2022-12-08T00:43:48.573Z,99864.31
2022-12-08T00:46:18.267Z,99857.31
2022-12-08T00:48:50.432Z,99854.66
2022-12-08T00:51:20.071Z,99854.66
2022-12-08T00:53:49.642Z,99853.75
2022-12-08T00:56:19.291Z,99843.31
2022-12-08T00:58:49.985Z,99847.66
2022-12-08T01:01:19.826Z,99851.19
2022-12-08T01:03:52.171Z,99842.47
2022-12-08T01:06:21.860Z,99851.22
2022-12-08T01:08:51.527Z,99841.59
2022-12-08T01:11:22.328Z,99842.47
2022-12-08T01:13:52.135Z,99839.00
2022-12-08T01:16:23.006Z,99842.53
2022-12-08T01:18:55.355Z,99840.00
2022-12-08T01:21:24.986Z,99838.31
2022-12-08T01:23:54.806Z,99836.56
2022-12-08T01:26:24.898Z,99840.97
2022-12-08T01:28:54.516Z,99840.94
2022-12-08T01:31:25.013Z,99844.44
2022-12-08T01:33:58.975Z,99842.63
2022-12-08T01:36:30.251Z,99844.34
2022-12-08T01:39:01.305Z,99841.69
2022-12-08T01:41:33.400Z,99839.91
2022-12-08T01:44:04.609Z,99838.16
2022-12-08T01:46:35.936Z,99839.88
2022-12-08T01:49:12.723Z,99837.22
2022-12-08T01:51:47.106Z,99837.19
2022-12-08T01:54:17.048Z,99836.28
2022-12-08T01:56:52.428Z,99831.06
2022-12-08T01:59:22.200Z,99828.44
2022-12-08T02:01:53.885Z,99824.09
2022-12-08T02:04:26.155Z,99830.25
2022-12-08T02:06:56.560Z,99819.88
2022-12-08T02:09:27.649Z,99817.25
2022-12-08T02:11:59.044Z,99814.63
2022-12-08T02:14:28.980Z,99814.69
2022-12-08T02:17:04.480Z,99810.38
2022-12-08T02:19:59.713Z,99813.00
2022-12-08T02:22:33.151Z,99810.38
2022-12-08T02:25:08.698Z,99799.94
2022-12-08T02:27:45.822Z,99811.25
2022-12-08T02:30:21.934Z,99798.16
2022-12-08T02:33:19.008Z,99798.13
2022-12-08T02:35:58.151Z,99802.50
2022-12-08T02:38:34.598Z,99789.41
2022-12-08T02:41:12.023Z,99785.06
2022-12-08T02:43:45.140Z,99779.81
2022-12-08T02:46:18.566Z,99775.44
2022-12-08T02:48:48.233Z,99772.00
2022-12-08T02:51:20.744Z,99773.69
2022-12-08T02:53:50.943Z,99773.69
2022-12-08T02:56:33.915Z,99766.69
2022-12-08T02:59:15.189Z,99769.31
2022-12-08T03:01:58.498Z,99757.94
2022-12-08T03:04:34.048Z,99755.25
2022-12-08T03:07:09.792Z,99752.69
2022-12-08T03:09:43.115Z,99749.19
2022-12-08T03:12:17.055Z,99744.84
2022-12-08T03:14:49.765Z,99746.56
2022-12-08T03:17:20.404Z,99743.09
2022-12-08T03:19:51.124Z,99742.25
2022-12-08T03:22:26.836Z,99739.59
2022-12-08T03:24:56.855Z,99732.63
2022-12-08T03:27:28.618Z,99734.34
2022-12-08T03:29:59.526Z,99731.72
2022-12-08T03:32:33.118Z,99730.84
2022-12-08T03:35:04.971Z,99730.84
2022-12-08T03:37:37.634Z,99727.34
2022-12-08T03:40:08.203Z,99729.06
2022-12-08T03:42:37.788Z,99720.31
2022-12-08T03:45:08.237Z,99720.25
2022-12-08T03:47:37.797Z,99719.34
2022-12-08T03:50:08.805Z,99711.47
2022-12-08T03:52:41.020Z,99708.84
2022-12-08T03:55:11.135Z,99701.09
2022-12-08T03:57:40.895Z,99699.34
2022-12-08T04:00:14.984Z,99702.81
2022-12-08T04:02:44.822Z,99698.31
2022-12-08T04:05:14.420Z,99687.75
2022-12-08T04:07:46.660Z,99695.50
2022-12-08T04:10:16.340Z,99694.59
2022-12-08T04:12:45.880Z,99689.38
2022-12-08T04:15:15.474Z,99681.47
2022-12-08T04:17:45.063Z,99677.09
2022-12-08T04:20:15.000Z,99679.72
2022-12-08T04:22:47.226Z,99675.31
2022-12-08T04:25:17.106Z,99677.09
2022-12-08T04:27:46.697Z,99671.84
2022-12-08T04:30:16.545Z,99672.75
2022-12-08T04:32:47.653Z,99668.41
2022-12-08T04:35:17.486Z,99661.38
2022-12-08T04:37:49.700Z,99652.69
2022-12-08T04:40:19.320Z,99649.22
2022-12-08T04:42:49.102Z,99653.53
2022-12-08T04:45:19.145Z,99658.75
2022-12-08T04:47:49.474Z,99655.25
2022-12-08T04:50:19.235Z,99650.88
2022-12-08T04:52:51.453Z,99656.13
2022-12-08T04:55:21.145Z,99646.53
2022-12-08T04:57:51.018Z,99651.78
2022-12-08T05:00:21.488Z,99655.34
2022-12-08T05:02:51.130Z,99647.53
2022-12-08T05:05:20.935Z,99643.19
2022-12-08T05:07:53.746Z,99644.09
2022-12-08T05:10:23.390Z,99644.09
2022-12-08T05:12:52.954Z,99642.41
2022-12-08T05:15:22.674Z,99652.00
2022-12-08T05:17:52.361Z,99649.47
2022-12-08T05:20:22.390Z,99645.13
2022-12-08T05:22:54.621Z,99639.88
2022-12-08T05:25:24.199Z,99639.94
2022-12-08T05:28:06.218Z,99644.34
2022-12-08T05:30:41.273Z,99640.09
2022-12-08T05:33:11.074Z,99635.78
2022-12-08T05:35:40.648Z,99629.72
2022-12-08T05:38:13.169Z,99638.47
2022-12-08T05:40:43.580Z,99632.44
2022-12-08T05:43:13.643Z,99633.28
2022-12-08T05:45:43.349Z,99628.03
2022-12-08T05:48:13.146Z,99627.19
2022-12-08T05:50:42.811Z,99627.19
2022-12-08T05:53:15.003Z,99624.53
2022-12-08T05:55:44.534Z,99625.34
2022-12-08T05:58:15.443Z,99612.16
2022-12-08T06:00:45.235Z,99619.13
2022-12-08T06:03:15.414Z,99619.13
2022-12-08T06:05:45.798Z,99618.16
2022-12-08T06:08:18.193Z,99612.91
2022-12-08T06:10:48.311Z,99615.47
2022-12-08T06:13:18.067Z,99618.81
2022-12-08T06:15:47.599Z,99614.38
2022-12-08T06:18:17.143Z,99614.28
2022-12-08T06:20:46.715Z,99611.59
2022-12-08T06:23:18.845Z,99617.72
2022-12-08T06:25:48.467Z,99607.28
2022-12-08T06:28:18.004Z,99609.97
2022-12-08T06:30:47.613Z,99610.84
2022-12-08T06:33:17.398Z,99617.88
2022-12-08T06:35:47.004Z,99619.72
2022-12-08T06:38:19.140Z,99608.44
2022-12-08T06:40:56.201Z,99611.03
2022-12-08T06:43:26.256Z,99612.84
2022-12-08T06:45:55.914Z,99614.53
2022-12-08T06:48:26.050Z,99607.59
2022-12-08T06:50:55.922Z,99611.91
2022-12-08T06:53:28.051Z,99613.69
2022-12-08T06:55:59.795Z,99610.22
2022-12-08T06:58:29.720Z,99612.84
2022-12-08T07:00:59.319Z,99611.13
2022-12-08T07:03:28.923Z,99616.34
2022-12-08T07:06:03.742Z,99614.69
2022-12-08T07:08:37.766Z,99618.16
2022-12-08T07:11:15.278Z,99625.16
2022-12-08T07:13:47.825Z,99620.03
2022-12-08T07:16:17.443Z,99621.75
2022-12-08T07:18:47.080Z,99632.25
2022-12-08T07:21:17.599Z,99632.25
2022-12-08T07:23:57.345Z,99632.25
2022-12-08T07:26:28.155Z,99635.78
2022-12-08T07:28:57.720Z,99630.53
2022-12-08T07:31:28.970Z,99639.25
2022-12-08T07:33:59.288Z,99632.34
2022-12-08T07:36:29.288Z,99635.84
2022-12-08T07:39:01.636Z,99630.53
2022-12-08T07:41:31.199Z,99633.97
2022-12-08T07:44:00.783Z,99626.94
2022-12-08T07:46:30.413Z,99634.69
2022-12-08T07:49:00.112Z,99621.59
2022-12-08T07:51:29.595Z,99619.88
2022-12-08T07:54:01.725Z,99626.00
2022-12-08T07:56:31.316Z,99626.94
2022-12-08T07:59:00.856Z,99626.06
2022-12-08T08:01:32.130Z,99633.97
2022-12-08T08:04:04.570Z,99623.50
2022-12-08T08:06:34.797Z,99634.84
2022-12-08T08:09:07.169Z,99631.34
2022-12-08T08:11:36.728Z,99625.25
2022-12-08T08:14:06.599Z,99627.94
2022-12-08T08:16:38.607Z,99627.09
2022-12-08T08:19:08.491Z,99632.44
2022-12-08T08:21:46.292Z,99629.88
2022-12-08T08:24:18.725Z,99632.53
2022-12-08T08:26:48.299Z,99628.22
2022-12-08T08:29:17.894Z,99637.06
2022-12-08T08:31:47.466Z,99631.94
2022-12-08T08:34:17.054Z,99645.97
2022-12-08T08:36:46.653Z,99641.63
2022-12-08T08:39:18.977Z,99637.19
2022-12-08T08:41:48.584Z,99641.63
2022-12-08T08:44:18.323Z,99647.72
2022-12-08T08:46:47.968Z,99647.75
2022-12-08T08:49:18.739Z,99638.19
2022-12-08T08:51:48.377Z,99635.59
2022-12-08T08:54:20.556Z,99636.47
2022-12-08T08:56:50.877Z,99631.16
2022-12-08T08:59:20.380Z,99641.53
2022-12-08T09:01:50.025Z,99638.81
2022-12-08T09:04:19.732Z,99640.50
2022-12-08T09:06:49.595Z,99640.44
2022-12-08T09:09:21.748Z,99636.00
2022-12-08T09:11:51.300Z,99640.25
2022-12-08T09:14:21.064Z,99634.06
2022-12-08T09:16:50.640Z,99626.00
2022-12-08T09:19:20.242Z,99626.75
2022-12-08T09:21:49.835Z,99631.81
2022-12-08T09:24:23.227Z,99632.53
2022-12-08T09:26:52.821Z,99635.81
2022-12-08T09:29:22.485Z,99633.97
2022-12-08T09:31:52.302Z,99641.75
2022-12-08T09:34:22.022Z,99640.78
2022-12-08T09:36:51.673Z,99639.94
2022-12-08T09:39:23.820Z,99638.13
2022-12-08T09:41:56.059Z,99642.47
2022-12-08T09:44:41.016Z,99639.75
2022-12-08T09:47:24.021Z,99638.78
2022-12-08T09:50:02.232Z,99636.16
2022-12-08T09:52:35.916Z,99637.06
2022-12-08T09:55:15.340Z,99632.59
2022-12-08T09:57:44.891Z,99635.22
2022-12-08T10:00:16.256Z,99635.28
2022-12-08T10:02:47.255Z,99630.03
2022-12-08T10:05:17.670Z,99630.88
2022-12-08T10:07:50.659Z,99627.34
2022-12-08T10:10:31.340Z,99628.97
2022-12-08T10:13:06.454Z,99614.88
2022-12-08T10:15:43.486Z,99626.09
2022-12-08T10:18:17.300Z,99618.97
2022-12-08T10:20:49.516Z,99629.38
2022-12-08T10:23:25.574Z,99609.25
2022-12-08T10:26:02.482Z,99617.94
2022-12-08T10:28:32.152Z,99618.66
2022-12-08T10:31:01.750Z,99619.44
2022-12-08T10:33:32.247Z,99609.78
2022-12-08T10:36:04.906Z,99605.44
2022-12-08T10:38:36.541Z,99608.03
2022-12-08T10:41:18.207Z,99600.19
2022-12-08T10:43:50.537Z,99605.47
2022-12-08T10:46:22.397Z,99602.88
2022-12-08T10:48:54.408Z,99602.97
2022-12-08T10:51:30.552Z,99598.63
2022-12-08T10:54:00.176Z,99602.13
2022-12-08T10:56:33.516Z,99591.66
2022-12-08T10:59:19.460Z,99593.31
2022-12-08T11:01:50.411Z,99591.44
2022-12-08T11:04:21.653Z,99589.56
2022-12-08T11:06:52.725Z,99586.84
2022-12-08T11:09:40.421Z,99582.38
2022-12-08T11:12:16.271Z,99585.03
2022-12-08T11:14:53.987Z,99583.28
2022-12-08T11:17:28.512Z,99584.22
2022-12-08T11:20:00.203Z,99578.13
2022-12-08T11:22:33.939Z,99571.16
2022-12-08T11:25:06.070Z,99560.66
2022-12-08T11:27:39.957Z,99571.16
2022-12-08T11:30:18.364Z,99558.09
2022-12-08T11:32:50.814Z,99551.00
2022-12-08T11:35:26.088Z,99554.34
2022-12-08T11:38:07.871Z,99557.69
2022-12-08T11:40:47.957Z,99555.88
2022-12-08T11:43:23.530Z,99559.19
2022-12-08T11:45:59.233Z,99550.31
2022-12-08T11:48:34.719Z,99550.06
2022-12-08T11:51:08.173Z,99544.53
2022-12-08T11:53:50.435Z,99547.75
2022-12-08T11:56:23.567Z,99546.63
2022-12-08T11:58:57.681Z,99547.31
2022-12-08T12:01:29.398Z,99541.88
2022-12-08T12:04:04.916Z,99544.41
2022-12-08T12:06:55.773Z,99539.06
2022-12-08T12:09:34.884Z,99529.34
2022-12-08T12:12:16.733Z,99538.81
2022-12-08T12:15:18.712Z,99531.75
2022-12-08T12:17:50.836Z,99527.34
2022-12-08T12:20:24.242Z,99529.06
2022-12-08T12:22:59.548Z,99524.59
2022-12-08T12:25:30.089Z,99524.44
2022-12-08T12:28:03.160Z,99522.47
2022-12-08T12:30:53.131Z,99532.94
2022-12-08T12:33:23.433Z,99525.06
2022-12-08T12:35:53.064Z,99518.94
2022-12-08T12:38:38.419Z,99524.19
2022-12-08T12:41:09.088Z,99522.53
2022-12-08T12:43:41.306Z,99518.31
2022-12-08T12:46:45.280Z,99520.28
2022-12-08T12:49:53.355Z,99517.81
2022-12-08T12:52:39.646Z,99513.63
2022-12-08T12:55:44.373Z,99516.25
2022-12-08T12:58:25.081Z,99510.25
2022-12-08T13:01:29.676Z,99510.31
2022-12-08T13:04:09.663Z,99503.38
2022-12-08T13:06:42.907Z,99507.75
2022-12-08T13:09:23.709Z,99505.19
2022-12-08T13:11:55.486Z,99500.06
2022-12-08T13:14:33.799Z,99505.31
2022-12-08T13:17:04.511Z,99504.44
2022-12-08T13:19:38.885Z,99507.19
2022-12-08T13:22:38.332Z,99506.38
2022-12-08T13:25:37.757Z,99497.69
2022-12-08T13:28:16.731Z,99510.06
2022-12-08T13:30:48.034Z,99497.88
2022-12-08T13:33:21.028Z,99497.00
2022-12-08T13:35:58.005Z,99497.88
2022-12-08T13:38:31.030Z,99500.56
2022-12-08T13:41:03.623Z,99499.00
2022-12-08T13:43:51.313Z,99490.38
2022-12-08T13:53:49.516Z,99483.78
2022-12-08T13:58:19.642Z,99484.13
2022-12-08T14:01:01.558Z,99487.69
2022-12-08T14:03:31.490Z,99492.09
2022-12-08T14:06:13.422Z,99487.69
2022-12-08T14:09:06.665Z,99488.63
2022-12-08T14:11:39.420Z,99485.13
2022-12-08T14:14:11.703Z,99481.78
2022-12-08T14:16:42.658Z,99486.22
2022-12-08T14:19:20.540Z,99484.53
2022-12-08T14:21:55.899Z,99493.34
2022-12-08T14:24:26.220Z,99496.88
2022-12-08T14:26:58.632Z,99491.75
2022-12-08T14:29:40.918Z,99494.44
2022-12-08T14:32:23.776Z,99490.28
2022-12-08T14:34:57.947Z,99497.38
2022-12-08T14:37:30.822Z,99488.78
2022-12-08T14:40:02.553Z,99492.47
2022-12-08T14:42:32.882Z,99490.78
2022-12-08T14:45:05.703Z,99494.38
2022-12-08T14:47:36.927Z,99496.16
2022-12-08T14:50:28.791Z,99496.28
2022-12-08T14:53:01.508Z,99498.09
2022-12-08T14:55:31.804Z,99501.63
2022-12-08T14:58:01.418Z,99494.66
2022-12-08T15:00:31.400Z,99495.56
2022-12-08T15:03:01.059Z,99496.50
2022-12-08T15:05:32.640Z,99493.06
2022-12-08T15:08:06.458Z,99502.69
2022-12-08T15:10:38.099Z,99501.06
2022-12-08T15:13:10.302Z,99504.66
2022-12-08T15:15:51.728Z,99503.81
2022-12-08T15:18:23.035Z,99502.22
2022-12-08T15:20:54.470Z,99506.72
2022-12-08T15:23:29.639Z,99505.94
2022-12-08T15:25:59.646Z,99502.53
2022-12-08T15:28:31.453Z,99502.59
2022-12-08T15:31:01.644Z,99495.75
2022-12-08T15:33:31.226Z,99493.19
2022-12-08T15:36:00.789Z,99495.03
2022-12-08T15:38:33.055Z,99498.69
2022-12-08T15:41:03.704Z,99500.63
2022-12-08T15:43:34.436Z,99501.63
2022-12-08T15:46:04.017Z,99506.13
2022-12-08T15:48:33.605Z,99500.13
2022-12-08T15:51:03.291Z,99496.69
2022-12-08T15:53:35.424Z,99499.38
2022-12-08T15:58:58.058Z,99503.84
2022-12-08T16:01:28.364Z,99495.94
2022-12-08T16:07:20.793Z,99507.09
2022-12-08T16:09:44.018Z,99498.22
2022-12-08T16:12:56.902Z,99499.91
2022-12-08T16:15:53.468Z,99496.34
2022-12-08T16:18:10.397Z,99493.59
2022-12-08T16:21:06.114Z,99504.09
2022-12-08T16:23:42.436Z,99498.78
2022-12-08T16:26:35.708Z,99501.41
2022-12-08T16:29:07.634Z,99504.88
2022-12-08T16:31:37.279Z,99504.88
2022-12-08T16:34:06.892Z,99493.44
2022-12-08T16:36:36.489Z,99497.75
2022-12-08T16:39:06.648Z,99495.13
2022-12-08T16:41:51.324Z,99499.47
2022-12-08T16:44:20.876Z,99496.84
2022-12-08T16:46:50.434Z,99499.47
2022-12-08T16:49:19.996Z,99500.38
2022-12-08T16:51:49.569Z,99501.25
2022-12-08T16:54:19.115Z,99500.41
2022-12-08T16:56:51.330Z,99498.66
2022-12-08T16:59:20.843Z,99498.69
2022-12-08T17:01:50.386Z,99495.19
2022-12-08T17:04:35.351Z,99489.09
2022-12-08T17:07:05.110Z,99489.09
2022-12-08T17:09:35.031Z,99494.34
2022-12-08T17:12:07.743Z,99491.72
2022-12-08T17:14:37.727Z,99490.00
2022-12-08T17:17:07.646Z,99494.41
2022-12-08T17:19:37.343Z,99489.28
2022-12-08T17:22:06.940Z,99496.34
2022-12-08T17:24:36.537Z,99496.34
2022-12-08T17:27:08.696Z,99496.34
2022-12-08T17:29:38.292Z,99492.78
2022-12-08T17:32:08.685Z,99496.28
2022-12-08T17:34:38.308Z,99498.84
2022-12-08T17:37:07.902Z,99491.03
2022-12-08T17:39:37.503Z,99504.13
2022-12-08T17:42:09.976Z,99505.88
2022-12-08T17:44:39.529Z,99512.03
2022-12-08T17:47:09.183Z,99508.53
2022-12-08T17:49:38.770Z,99508.59
2022-12-08T17:52:09.837Z,99494.72
2022-12-08T17:54:39.628Z,99502.63
2022-12-08T17:57:11.844Z,99498.31
2022-12-08T17:59:41.394Z,99501.00
2022-12-08T18:02:13.596Z,99494.09
2022-12-08T18:04:43.177Z,99491.53
2022-12-08T18:07:12.740Z,99495.09
2022-12-08T18:09:42.309Z,99491.59
2022-12-08T18:12:18.032Z,99490.75
2022-12-08T18:14:51.695Z,99493.47
2022-12-08T18:17:21.452Z,99495.25
2022-12-08T18:19:51.071Z,99492.69
2022-12-08T18:22:20.670Z,99496.19
2022-12-08T18:24:50.275Z,99490.13
2022-12-08T18:27:22.476Z,99497.03
2022-12-08T18:29:52.019Z,99495.25
2022-12-08T18:32:23.631Z,99493.53
2022-12-08T18:34:53.604Z,99491.75
2022-12-08T18:37:23.207Z,99487.28
2022-12-08T18:39:52.797Z,99495.09
2022-12-08T18:42:28.362Z,99494.16
2022-12-08T18:45:02.820Z,99501.13
2022-12-08T18:47:32.229Z,99495.81
2022-12-08T18:50:01.783Z,99502.84
2022-12-08T18:52:32.507Z,99494.97
2022-12-08T18:55:09.511Z,99495.03
2022-12-08T18:57:43.657Z,99499.44
2022-12-08T19:00:15.799Z,99492.53
2022-12-08T19:02:45.664Z,99489.91
2022-12-08T19:05:16.500Z,99493.47
2022-12-08T19:07:46.603Z,99495.16
2022-12-08T19:10:16.300Z,99496.97
2022-12-08T19:12:48.688Z,99497.88
2022-12-08T19:15:18.292Z,99496.97
2022-12-08T19:17:47.987Z,99496.97
2022-12-08T19:20:17.657Z,99503.94
2022-12-08T19:22:47.274Z,99505.66
2022-12-08T19:25:16.839Z,99503.09
2022-12-08T19:27:48.994Z,99498.75
2022-12-08T19:30:19.036Z,99506.63
2022-12-08T19:32:48.660Z,99505.81
2022-12-08T19:35:18.203Z,99501.44
2022-12-08T19:37:47.787Z,99506.66
2022-12-08T19:40:31.696Z,99509.28
2022-12-08T19:43:16.334Z,99502.38
2022-12-08T19:45:45.971Z,99506.72
2022-12-08T19:48:15.621Z,99500.69
2022-12-08T19:50:45.201Z,99511.16
2022-12-08T19:53:17.237Z,99508.53
2022-12-08T19:55:47.271Z,99504.16
2022-12-08T19:58:19.777Z,99511.16
2022-12-08T20:00:49.880Z,99509.34
2022-12-08T20:03:21.038Z,99504.94
2022-12-08T20:05:53.296Z,99509.38
2022-12-08T20:08:22.947Z,99509.44
2022-12-08T20:10:55.950Z,99508.59
2022-12-08T20:13:40.621Z,99506.94
2022-12-08T20:16:11.435Z,99508.78
2022-12-08T20:18:42.173Z,99505.41
2022-12-08T20:21:12.786Z,99505.53
2022-12-08T20:23:42.416Z,99497.81
2022-12-08T20:26:15.387Z,99505.78
2022-12-08T20:28:47.607Z,99508.50
2022-12-08T20:31:21.231Z,99515.53
2022-12-08T20:33:51.246Z,99521.66
2022-12-08T20:36:22.158Z,99512.13
2022-12-08T20:38:53.586Z,99503.44
2022-12-08T20:41:25.299Z,99507.91
2022-12-08T20:43:57.556Z,99508.03
2022-12-08T20:46:27.220Z,99511.63
2022-12-08T20:49:01.221Z,99515.22
2022-12-08T20:51:32.199Z,99510.13
2022-12-08T20:54:02.471Z,99520.63
2022-12-08T20:56:32.419Z,99518.06
2022-12-08T20:59:04.641Z,99516.38
2022-12-08T21:01:34.487Z,99518.00
2022-12-08T21:04:04.446Z,99516.97
2022-12-08T21:06:34.167Z,99517.69
2022-12-08T21:09:03.871Z,99521.94
2022-12-08T21:11:33.796Z,99524.31
2022-12-08T21:14:06.855Z,99523.28
2022-12-08T21:16:36.651Z,99512.72
2022-12-08T21:19:06.676Z,99514.28
2022-12-08T21:21:36.570Z,99514.16
2022-12-08T21:24:06.919Z,99514.03
2022-12-08T21:26:36.593Z,99513.09
2022-12-08T21:29:08.874Z,99517.38
2022-12-08T21:31:38.649Z,99513.78
2022-12-08T21:34:08.375Z,99516.38
2022-12-08T21:36:38.173Z,99516.28
2022-12-08T21:39:12.856Z,99519.72
2022-12-08T21:41:55.086Z,99515.31
2022-12-08T21:44:27.457Z,99518.72
2022-12-08T21:46:57.157Z,99512.59
2022-12-08T21:49:26.928Z,99509.91
2022-12-08T21:51:56.705Z,99515.16
2022-12-08T21:54:26.550Z,99515.16
2022-12-08T21:56:56.194Z,99516.94
2022-12-08T21:59:28.489Z,99518.75
2022-12-08T22:01:58.607Z,99517.13
2022-12-08T22:04:28.574Z,99517.22
2022-12-08T22:06:58.409Z,99515.50
2022-12-08T22:09:28.169Z,99515.50
2022-12-08T22:11:59.050Z,99519.91
2022-12-08T22:14:31.365Z,99513.78
2022-12-08T22:17:01.279Z,99508.69
2022-12-08T22:19:30.984Z,99514.94
2022-12-08T22:22:00.762Z,99514.16
2022-12-08T22:24:32.966Z,99516.00
2022-12-08T22:27:02.848Z,99517.84
2022-12-08T22:29:35.286Z,99516.16
2022-12-08T22:32:05.237Z,99518.78
2022-12-08T22:34:35.148Z,99522.22
2022-12-08T22:37:04.893Z,99516.06
2022-12-08T22:39:35.845Z,99519.63
2022-12-08T22:42:05.702Z,99517.94
2022-12-08T22:44:38.099Z,99514.44
2022-12-08T22:47:08.278Z,99513.66
2022-12-08T22:49:38.142Z,99514.63
2022-12-08T22:52:08.255Z,99505.94
2022-12-08T22:54:38.428Z,99505.94
2022-12-08T22:57:08.049Z,99510.25
2022-12-08T22:59:40.972Z,99505.88
2022-12-08T23:02:10.949Z,99507.63
2022-12-08T23:04:40.817Z,99504.13
2022-12-08T23:07:10.678Z,99500.59
2022-12-08T23:09:40.249Z,99507.56
2022-12-08T23:12:10.176Z,99504.97
2022-12-08T23:14:42.381Z,99499.72
2022-12-08T23:17:12.081Z,99498.00
2022-12-08T23:19:42.018Z,99504.94
2022-12-08T23:22:11.611Z,99503.28
2022-12-08T23:24:41.296Z,99503.28
2022-12-08T23:27:10.836Z,99501.59
2022-12-08T23:29:43.039Z,99503.31
2022-12-08T23:32:12.711Z,99498.03
2022-12-08T23:34:42.637Z,99494.47
2022-12-08T23:37:12.236Z,99499.66
2022-12-08T23:39:41.844Z,99502.28
2022-12-08T23:42:11.545Z,99502.25
2022-12-08T23:44:43.823Z,99502.09
2022-12-08T23:47:13.506Z,99497.69
2022-12-08T23:49:43.145Z,99496.75
2022-12-08T23:52:14.372Z,99495.03
2022-12-08T23:54:44.958Z,99482.97
2022-12-08T23:57:14.746Z,99493.56
2022-12-08T23:59:47.283Z,99485.06
